Time;durP1;ratioP1;P1;durP2;ratioP2;P2;SDS_P1;SDS_P2;PMS_P1;PMS_P2;Temp;Humidity;BMP_temperature;BMP_pressure;BME280_temperature;BME280_humidity;BME280_pressure;Samples;Min_cycle;Max_cycle;Signal;HPM_P1;HPM_P2
2023/06/17 05:00:25;;;;;;;7.77;7.07;;;17.40;97.20;;;;;;1714679;28;20562;-70
2023/06/17 05:01:16;;;;;;;8.40;7.63;;;17.50;97.20;;;;;;1714673;28;20667;-70
2023/06/17 05:02:08;;;;;;;8.00;7.30;;;17.50;97.20;;;;;;1714414;28;20567;-70
2023/06/17 05:02:59;;;;;;;8.50;7.70;;;17.60;97.20;;;;;;1714603;28;20206;-70
2023/06/17 05:03:50;;;;;;;8.50;7.70;;;17.60;97.20;;;;;;1714669;28;20198;-70
2023/06/17 05:04:41;;;;;;;7.78;7.18;;;17.60;97.20;;;;;;1714635;28;20202;-70
2023/06/17 05:05:33;;;;;;;8.20;7.40;;;17.70;97.20;;;;;;1714728;28;20210;-70
2023/06/17 05:06:24;;;;;;;7.60;6.80;;;17.70;97.20;;;;;;1714702;28;20201;-70
2023/06/17 05:07:16;;;;;;;8.20;7.40;;;17.70;97.20;;;;;;1714619;28;20206;-70
2023/06/17 05:08:06;;;;;;;8.15;7.28;;;17.70;97.20;;;;;;1714669;28;20229;-70
2023/06/17 05:08:57;;;;;;;8.93;8.13;;;17.80;97.20;;;;;;1714673;28;20289;-71
2023/06/17 05:09:49;;;;;;;7.97;7.23;;;17.80;97.20;;;;;;1714602;28;20477;-70
2023/06/17 05:10:39;;;;;;;9.43;8.13;;;17.80;97.20;;;;;;1714517;28;20229;-70
2023/06/17 05:11:31;;;;;;;8.37;7.57;;;17.80;97.20;;;;;;1714641;28;20198;-70
2023/06/17 05:12:22;;;;;;;8.23;7.43;;;17.90;97.20;;;;;;1714339;28;20226;-70
2023/06/17 05:13:14;;;;;;;8.37;7.50;;;17.90;97.20;;;;;;1714673;28;20208;-70
2023/06/17 05:14:04;;;;;;;7.93;7.13;;;17.90;97.20;;;;;;1714465;28;20206;-70
2023/06/17 05:14:56;;;;;;;8.10;7.30;;;17.90;97.20;;;;;;1714522;28;20201;-71
2023/06/17 05:15:48;;;;;;;7.82;7.15;;;17.90;97.20;;;;;;1714620;28;20212;-70
2023/06/17 05:16:40;;;;;;;7.47;6.78;;;17.90;97.20;;;;;;1714668;28;20205;-71
2023/06/17 05:17:30;;;;;;;7.15;6.55;;;17.90;97.20;;;;;;1714582;28;20209;-70
2023/06/17 05:18:22;;;;;;;7.80;7.10;;;17.90;97.20;;;;;;1714633;28;20216;-70
2023/06/17 05:19:13;;;;;;;8.30;7.50;;;17.90;97.20;;;;;;1712515;28;20551;-70
2023/06/17 05:20:06;;;;;;;8.53;7.80;;;18.00;97.20;;;;;;1711716;28;20194;-70
2023/06/17 05:20:57;;;;;;;7.78;7.10;;;18.00;97.20;;;;;;1707785;28;20466;-70
2023/06/17 05:21:48;;;;;;;8.43;7.70;;;18.00;97.20;;;;;;1706779;28;20190;-70
2023/06/17 05:22:39;;;;;;;7.88;6.80;;;18.00;97.20;;;;;;1707957;28;20584;-70
2023/06/17 05:23:30;;;;;;;7.60;7.00;;;18.10;97.20;;;;;;1707962;28;20220;-70
2023/06/17 05:24:21;;;;;;;8.60;7.80;;;18.10;97.20;;;;;;1707848;28;20207;-70
2023/06/17 05:25:12;;;;;;;7.60;7.00;;;18.10;97.20;;;;;;1707983;28;20210;-70
2023/06/17 05:26:04;;;;;;;8.03;7.23;;;18.20;97.20;;;;;;1707897;28;20206;-70
2023/06/17 05:26:55;;;;;;;7.75;7.13;;;18.20;97.20;;;;;;1707962;28;20571;-70
2023/06/17 05:27:46;;;;;;;9.40;7.57;;;18.30;97.20;;;;;;1707799;28;20353;-71
2023/06/17 05:28:37;;;;;;;8.35;7.60;;;18.30;97.20;;;;;;1707969;28;20210;-70
2023/06/17 05:29:29;;;;;;;7.90;7.00;;;18.30;97.20;;;;;;1707984;28;20202;-70
2023/06/17 05:30:19;;;;;;;8.55;7.07;;;18.30;97.20;;;;;;1707612;28;20210;-70
2023/06/17 05:31:12;;;;;;;8.00;7.37;;;18.30;97.20;;;;;;1707897;28;20202;-70
2023/06/17 05:32:03;;;;;;;8.95;7.13;;;18.40;97.20;;;;;;1707259;28;20209;-70
2023/06/17 05:32:55;;;;;;;9.13;8.23;;;18.40;97.20;;;;;;1707849;28;20204;-70
2023/06/17 05:33:46;;;;;;;13.32;7.80;;;18.40;97.20;;;;;;1707729;28;21000;-70
2023/06/17 05:34:37;;;;;;;12.63;7.50;;;18.40;97.20;;;;;;1707895;28;20703;-70
2023/06/17 05:35:28;;;;;;;8.60;7.45;;;18.40;97.20;;;;;;1707237;29;20202;-70
2023/06/17 05:36:20;;;;;;;8.80;8.00;;;18.40;97.20;;;;;;1707859;29;20207;-70
2023/06/17 05:37:10;;;;;;;8.10;7.30;;;18.50;97.20;;;;;;1707145;29;20968;-70
2023/06/17 05:38:02;;;;;;;7.70;6.97;;;18.50;97.20;;;;;;1707648;28;20556;-70
2023/06/17 05:38:53;;;;;;;8.45;7.40;;;18.50;97.20;;;;;;1707801;29;20213;-70
2023/06/17 05:39:45;;;;;;;8.20;7.50;;;18.50;97.20;;;;;;1707961;29;20281;-70
2023/06/17 05:40:35;;;;;;;7.30;6.65;;;18.50;97.20;;;;;;1707702;29;20226;-70
2023/06/17 05:41:27;;;;;;;8.90;7.00;;;18.50;97.20;;;;;;1707975;29;20213;-70
2023/06/17 05:42:18;;;;;;;8.10;7.40;;;18.60;97.20;;;;;;1707537;29;20821;-70
2023/06/17 05:43:10;;;;;;;8.30;7.50;;;18.60;97.20;;;;;;1707890;29;20206;-70
2023/06/17 05:44:00;;;;;;;8.55;7.70;;;18.60;97.20;;;;;;1707671;29;20687;-70
2023/06/17 05:44:52;;;;;;;7.60;6.90;;;18.60;97.20;;;;;;1707847;29;20583;-70
2023/06/17 05:45:43;;;;;;;7.60;6.90;;;18.60;97.20;;;;;;1707792;29;20207;-70
2023/06/17 05:46:36;;;;;;;9.20;7.83;;;18.60;97.20;;;;;;1707726;29;20210;-70
2023/06/17 05:47:26;;;;;;;8.32;7.63;;;18.60;97.20;;;;;;1707808;29;20449;-70
2023/06/17 05:48:18;;;;;;;7.83;7.13;;;18.60;97.20;;;;;;1707793;28;20209;-70
2023/06/17 05:49:09;;;;;;;8.38;7.70;;;18.70;97.20;;;;;;1707711;29;20217;-70
2023/06/17 05:50:00;;;;;;;7.97;7.23;;;18.70;97.20;;;;;;1707382;29;20248;-70
2023/06/17 05:50:51;;;;;;;8.02;7.22;;;18.70;97.20;;;;;;1707537;29;20226;-70
2023/06/17 05:51:43;;;;;;;7.60;6.90;;;18.70;97.20;;;;;;1707815;28;20195;-70
2023/06/17 05:52:34;;;;;;;8.60;7.75;;;18.70;97.20;;;;;;1707640;29;20620;-70
2023/06/17 05:53:25;;;;;;;7.67;6.93;;;18.70;97.20;;;;;;1707648;29;20202;-70
2023/06/17 05:54:16;;;;;;;8.32;7.63;;;18.80;97.20;;;;;;1707442;29;20579;-70
2023/06/17 05:55:09;;;;;;;8.63;7.70;;;18.80;97.20;;;;;;1707676;28;20660;-70
2023/06/17 05:56:00;;;;;;;8.85;7.95;;;18.80;97.20;;;;;;1707541;28;20203;-70
2023/06/17 05:56:52;;;;;;;8.10;7.30;;;18.80;97.20;;;;;;1707684;28;20225;-70
2023/06/17 05:57:43;;;;;;;8.68;7.95;;;18.80;97.20;;;;;;1707654;29;20209;-70
2023/06/17 05:58:34;;;;;;;7.90;7.20;;;18.90;97.20;;;;;;1707367;29;20195;-70
2023/06/17 05:59:28;;;;;;;8.40;7.70;;;18.90;97.20;;;;;;1707559;29;20218;-70
2023/06/17 06:00:20;;;;;;;10.95;7.95;;;18.90;97.20;;;;;;1707520;28;20198;-70
2023/06/17 06:01:11;;;;;;;7.95;7.22;;;18.90;97.20;;;;;;1707645;28;20221;-70
2023/06/17 06:02:04;;;;;;;8.53;7.80;;;18.90;97.20;;;;;;1707367;29;20214;-70
2023/06/17 06:02:56;;;;;;;8.27;7.40;;;18.90;97.20;;;;;;1707443;29;20209;-70
2023/06/17 06:03:47;;;;;;;8.57;7.65;;;18.90;97.20;;;;;;1707582;29;20215;-70
2023/06/17 06:04:38;;;;;;;9.65;8.65;;;18.90;97.20;;;;;;1707588;29;20638;-70
2023/06/17 06:05:30;;;;;;;9.70;8.30;;;19.00;97.20;;;;;;1707638;28;20194;-70
2023/06/17 06:06:20;;;;;;;8.13;7.30;;;19.00;97.20;;;;;;1707541;29;20206;-70
2023/06/17 06:07:12;;;;;;;8.63;7.77;;;19.00;97.20;;;;;;1707619;28;20210;-70
2023/06/17 06:08:03;;;;;;;8.55;7.75;;;19.10;97.20;;;;;;1707690;29;20396;-70
2023/06/17 06:08:55;;;;;;;8.52;7.70;;;19.10;97.20;;;;;;1707563;29;20209;-70
2023/06/17 06:09:46;;;;;;;8.57;7.78;;;19.20;97.20;;;;;;1707634;29;20260;-70
2023/06/17 06:10:38;;;;;;;9.18;8.38;;;19.20;97.20;;;;;;1707149;29;20570;-70
2023/06/17 06:11:28;;;;;;;8.98;8.15;;;19.20;97.20;;;;;;1707572;29;20221;-70
2023/06/17 06:12:20;;;;;;;8.07;7.40;;;19.30;97.20;;;;;;1707315;29;20202;-70
2023/06/17 06:13:11;;;;;;;8.10;7.35;;;19.30;97.20;;;;;;1707479;29;20590;-70
2023/06/17 06:14:03;;;;;;;7.83;7.20;;;19.30;97.20;;;;;;1707463;29;20199;-70
2023/06/17 06:14:54;;;;;;;8.20;7.50;;;19.30;97.20;;;;;;1707521;29;20241;-70
2023/06/17 06:15:46;;;;;;;8.40;7.60;;;19.30;97.20;;;;;;1707503;29;20209;-70
2023/06/17 06:16:37;;;;;;;8.60;7.82;;;19.40;97.20;;;;;;1707557;29;20210;-70
2023/06/17 06:17:30;;;;;;;8.30;7.50;;;19.40;97.20;;;;;;1707525;29;20206;-70
2023/06/17 06:18:21;;;;;;;9.10;7.57;;;19.40;97.20;;;;;;1707576;28;20272;-70
2023/06/17 06:19:13;;;;;;;7.63;6.90;;;19.40;97.20;;;;;;1707607;28;20230;-70
2023/06/17 06:20:04;;;;;;;8.02;7.40;;;19.40;97.20;;;;;;1707495;29;20203;-70
2023/06/17 06:20:56;;;;;;;8.25;7.55;;;19.40;97.20;;;;;;1707410;29;20230;-70
2023/06/17 06:21:47;;;;;;;8.05;7.35;;;19.50;97.20;;;;;;1707325;29;20202;-70
2023/06/17 06:22:38;;;;;;;8.17;7.37;;;19.50;97.20;;;;;;1707552;28;20198;-70
2023/06/17 06:23:29;;;;;;;9.15;7.85;;;19.50;97.20;;;;;;1707459;29;20218;-70
2023/06/17 06:24:21;;;;;;;8.97;8.07;;;19.60;97.20;;;;;;1707543;28;20198;-70
2023/06/17 06:25:12;;;;;;;9.13;8.32;;;19.60;97.20;;;;;;1707483;29;20473;-70
2023/06/17 06:26:03;;;;;;;8.87;7.97;;;19.60;97.20;;;;;;1707484;29;20195;-70
2023/06/17 06:26:54;;;;;;;8.88;7.97;;;19.60;97.20;;;;;;1707230;29;20210;-70
2023/06/17 06:27:46;;;;;;;8.00;7.30;;;19.60;97.20;;;;;;1707324;29;20205;-70
2023/06/17 06:28:37;;;;;;;8.40;7.70;;;19.70;97.20;;;;;;1707449;29;20467;-70
2023/06/17 06:29:29;;;;;;;8.90;8.00;;;19.70;97.20;;;;;;1707593;29;20225;-70
2023/06/17 06:30:19;;;;;;;10.02;8.57;;;19.70;97.20;;;;;;1707114;29;20254;-70
2023/06/17 06:31:11;;;;;;;8.80;8.00;;;19.70;97.20;;;;;;1707561;29;20202;-70
2023/06/17 06:32:02;;;;;;;9.27;8.48;;;19.70;97.20;;;;;;1707223;29;20447;-70
2023/06/17 06:32:55;;;;;;;8.75;7.95;;;19.80;97.20;;;;;;1707314;28;20715;-70
2023/06/17 06:33:47;;;;;;;7.82;7.13;;;19.80;97.20;;;;;;1707450;29;20696;-70
2023/06/17 06:34:38;;;;;;;8.05;7.30;;;19.90;97.20;;;;;;1707397;29;20199;-70
2023/06/17 06:35:29;;;;;;;8.70;7.72;;;19.90;97.20;;;;;;1707533;29;20203;-70
2023/06/17 06:36:21;;;;;;;9.03;7.83;;;19.90;97.20;;;;;;1707579;28;20198;-70
2023/06/17 06:37:12;;;;;;;8.90;8.00;;;20.00;97.20;;;;;;1707551;29;20213;-70
2023/06/17 06:38:03;;;;;;;8.77;8.07;;;20.00;97.20;;;;;;1707471;29;20198;-70
2023/06/17 06:38:54;;;;;;;7.85;7.20;;;20.00;97.20;;;;;;1707470;29;20684;-70
2023/06/17 06:39:46;;;;;;;7.83;7.13;;;20.10;97.20;;;;;;1707606;29;20579;-70
2023/06/17 06:40:36;;;;;;;8.88;7.97;;;20.10;97.20;;;;;;1707310;29;20470;-70
2023/06/17 06:41:28;;;;;;;11.33;7.90;;;20.20;97.20;;;;;;1707413;29;20253;-70
2023/06/17 06:42:19;;;;;;;9.10;8.20;;;20.20;97.20;;;;;;1707155;29;20213;-70
2023/06/17 06:43:11;;;;;;;8.27;7.40;;;20.30;97.20;;;;;;1707419;29;20691;-70
2023/06/17 06:44:02;;;;;;;8.30;7.60;;;20.30;97.20;;;;;;1707087;29;20237;-72
2023/06/17 06:44:53;;;;;;;7.70;7.10;;;20.30;97.20;;;;;;1707396;29;20199;-70
2023/06/17 06:45:44;;;;;;;8.60;7.90;;;20.40;97.20;;;;;;1707478;29;20469;-70
2023/06/17 06:46:36;;;;;;;8.07;7.37;;;20.40;97.20;;;;;;1707434;29;20209;-70
2023/06/17 06:47:28;;;;;;;8.13;7.28;;;20.50;97.20;;;;;;1707364;29;20250;-70
2023/06/17 06:48:21;;;;;;;8.88;8.07;;;20.50;97.20;;;;;;1707421;29;20257;-70
2023/06/17 06:49:12;;;;;;;8.68;7.82;;;20.50;97.20;;;;;;1707357;29;20261;-70
2023/06/17 06:50:04;;;;;;;7.63;7.03;;;20.60;97.20;;;;;;1707303;28;20198;-71
2023/06/17 06:50:55;;;;;;;10.82;7.60;;;20.60;97.20;;;;;;1713840;28;20256;-70
2023/06/17 06:51:46;;;;;;;10.20;7.90;;;20.70;97.20;;;;;;1713972;28;20210;-70
2023/06/17 06:52:37;;;;;;;8.90;8.00;;;20.70;97.20;;;;;;1714020;28;20205;-70
2023/06/17 06:53:29;;;;;;;9.70;7.90;;;20.70;97.20;;;;;;1714004;28;20675;-70
2023/06/17 06:54:20;;;;;;;7.78;7.05;;;20.80;97.20;;;;;;1713946;28;20300;-70
2023/06/17 06:55:12;;;;;;;7.33;6.73;;;20.80;97.20;;;;;;1714130;28;20260;-70
2023/06/17 06:56:03;;;;;;;7.65;7.05;;;20.80;97.20;;;;;;1714006;28;20566;-70
2023/06/17 06:56:55;;;;;;;8.00;7.00;;;20.90;97.20;;;;;;1714016;28;20607;-70
2023/06/17 06:57:46;;;;;;;8.63;7.80;;;20.90;97.20;;;;;;1714002;28;20445;-70
2023/06/17 06:58:38;;;;;;;7.83;6.90;;;20.90;97.20;;;;;;1714093;28;20206;-70
2023/06/17 06:59:28;;;;;;;8.52;7.47;;;21.00;97.20;;;;;;1714011;28;20225;-70
2023/06/17 07:00:21;;;;;;;7.70;7.00;;;21.10;97.20;;;;;;1713293;28;20202;-70
2023/06/17 07:01:13;;;;;;;7.97;7.22;;;21.10;97.20;;;;;;1707628;28;20207;-70
2023/06/17 07:02:05;;;;;;;8.80;7.80;;;21.10;97.20;;;;;;1707165;28;20194;-70
2023/06/17 07:02:56;;;;;;;8.00;7.25;;;21.20;97.20;;;;;;1707382;28;20546;-70
2023/06/17 07:03:49;;;;;;;8.20;7.40;;;21.20;97.20;;;;;;1707376;28;20199;-70
2023/06/17 07:04:41;;;;;;;8.50;7.70;;;21.20;97.20;;;;;;1707473;28;20618;-71
2023/06/17 07:05:33;;;;;;;7.50;6.80;;;21.30;97.20;;;;;;1707334;28;20233;-70
2023/06/17 07:06:24;;;;;;;7.57;6.88;;;21.30;97.20;;;;;;1707325;28;20203;-70
2023/06/17 07:07:16;;;;;;;7.60;6.90;;;21.30;97.20;;;;;;1707305;28;20203;-70
2023/06/17 07:08:06;;;;;;;7.60;6.90;;;21.40;97.20;;;;;;1707367;28;20554;-69
2023/06/17 07:08:58;;;;;;;8.07;7.30;;;21.40;97.20;;;;;;1707372;28;20287;-71
2023/06/17 07:09:49;;;;;;;7.95;7.35;;;21.50;97.20;;;;;;1707400;28;20207;-71
2023/06/17 07:10:40;;;;;;;8.00;7.20;;;21.50;97.20;;;;;;1707245;28;20313;-71
2023/06/17 07:11:31;;;;;;;10.50;7.32;;;21.50;97.20;;;;;;1707355;28;20202;-71
2023/06/17 07:12:23;;;;;;;8.50;6.93;;;21.60;97.20;;;;;;1707131;28;20199;-71
2023/06/17 07:13:14;;;;;;;7.90;7.20;;;21.60;97.20;;;;;;1707311;28;20211;-71
2023/06/17 07:14:06;;;;;;;8.97;7.47;;;21.60;97.20;;;;;;1707211;28;20201;-71
2023/06/17 07:14:57;;;;;;;8.15;7.45;;;21.60;97.20;;;;;;1707313;28;20207;-71
2023/06/17 07:15:48;;;;;;;6.83;6.30;;;21.70;97.20;;;;;;1707449;28;20213;-71
2023/06/17 07:16:39;;;;;;;8.02;7.30;;;21.70;97.20;;;;;;1707278;28;20206;-71
2023/06/17 07:17:31;;;;;;;8.20;7.53;;;21.70;97.20;;;;;;1708306;28;20198;-71
2023/06/17 07:18:22;;;;;;;7.15;6.55;;;21.80;97.20;;;;;;1707306;28;20461;-71
2023/06/17 07:19:15;;;;;;;8.70;7.50;;;21.80;97.20;;;;;;1707329;28;20691;-71
2023/06/17 07:20:06;;;;;;;9.10;6.97;;;21.90;97.20;;;;;;1707379;28;20457;-71
2023/06/17 07:20:58;;;;;;;8.70;7.85;;;21.90;97.20;;;;;;1707204;28;20846;-71
2023/06/17 07:21:49;;;;;;;8.07;6.75;;;21.90;97.20;;;;;;1707093;28;20198;-71
2023/06/17 07:22:42;;;;;;;8.63;7.53;;;22.00;97.20;;;;;;1707259;28;20194;-71
2023/06/17 07:23:33;;;;;;;8.15;7.30;;;22.00;97.20;;;;;;1707181;28;20206;-71
2023/06/17 07:24:25;;;;;;;9.00;7.10;;;22.10;97.20;;;;;;1707268;28;20207;-71
2023/06/17 07:25:15;;;;;;;7.07;6.47;;;22.10;97.20;;;;;;1707244;28;20260;-71
2023/06/17 07:26:07;;;;;;;8.03;7.33;;;22.10;97.20;;;;;;1707355;28;20225;-71
2023/06/17 07:26:58;;;;;;;8.25;7.53;;;22.20;97.20;;;;;;1707304;28;20461;-71
2023/06/17 07:27:50;;;;;;;8.83;7.90;;;22.20;97.20;;;;;;1707275;28;20234;-71
2023/06/17 07:28:42;;;;;;;9.00;7.63;;;22.20;97.20;;;;;;1707238;28;20202;-71
2023/06/17 07:29:34;;;;;;;7.93;6.78;;;22.30;97.20;;;;;;1707263;28;20291;-71
2023/06/17 07:30:24;;;;;;;7.90;7.07;;;22.30;97.20;;;;;;1707043;28;20297;-71
2023/06/17 07:31:16;;;;;;;8.13;7.33;;;22.40;97.20;;;;;;1707343;28;20802;-72
2023/06/17 07:32:07;;;;;;;7.90;7.30;;;22.40;97.20;;;;;;1707145;28;20583;-71
2023/06/17 07:32:59;;;;;;;8.17;7.30;;;22.40;97.20;;;;;;1707320;28;20632;-71
2023/06/17 07:33:49;;;;;;;8.63;7.75;;;22.40;97.20;;;;;;1708229;28;20446;-71
2023/06/17 07:34:42;;;;;;;7.83;7.00;;;22.50;97.20;;;;;;1707295;28;20198;-71
2023/06/17 07:35:33;;;;;;;8.73;7.55;;;22.50;97.20;;;;;;1707409;28;20213;-71
2023/06/17 07:36:25;;;;;;;7.70;7.07;;;22.60;97.20;;;;;;1707309;28;20636;-71
2023/06/17 07:37:16;;;;;;;7.80;7.10;;;22.60;97.20;;;;;;1707182;28;20268;-71
2023/06/17 07:38:08;;;;;;;8.00;7.20;;;22.60;97.20;;;;;;1707315;28;20199;-71
2023/06/17 07:38:58;;;;;;;7.72;7.07;;;22.70;97.20;;;;;;1707349;28;20217;-71
2023/06/17 07:39:50;;;;;;;7.80;7.20;;;22.70;97.20;;;;;;1707334;28;20202;-71
2023/06/17 07:40:41;;;;;;;8.30;7.32;;;22.80;97.20;;;;;;1707159;28;20622;-71
2023/06/17 07:41:32;;;;;;;6.90;6.30;;;22.80;97.20;;;;;;1707270;28;20248;-72
2023/06/17 07:42:23;;;;;;;7.20;6.60;;;22.90;97.20;;;;;;1706969;28;20210;-71
2023/06/17 07:43:15;;;;;;;6.90;6.30;;;22.90;97.20;;;;;;1707228;28;20216;-71
2023/06/17 07:44:05;;;;;;;9.48;7.38;;;23.00;97.20;;;;;;1707348;28;20214;-71
2023/06/17 07:44:57;;;;;;;7.80;7.10;;;23.00;97.20;;;;;;1707534;28;20217;-71
2023/06/17 07:45:48;;;;;;;8.05;7.25;;;23.00;97.20;;;;;;1708696;28;20535;-71
2023/06/17 07:46:40;;;;;;;9.82;7.35;;;23.10;97.20;;;;;;1708628;28;20206;-71
2023/06/17 07:47:31;;;;;;;8.65;6.97;;;23.10;97.20;;;;;;1708640;28;20202;-71
2023/06/17 07:48:22;;;;;;;6.97;6.37;;;23.20;97.20;;;;;;1714004;28;20198;-71
2023/06/17 07:49:13;;;;;;;7.70;7.00;;;23.20;97.20;;;;;;1715168;28;20237;-71
2023/06/17 07:50:09;;;;;;;7.70;6.90;;;23.20;97.20;;;;;;1715251;28;20194;-71
2023/06/17 07:50:59;;;;;;;8.05;7.25;;;23.20;97.20;;;;;;1715085;28;20260;-71
2023/06/17 07:51:51;;;;;;;9.27;6.97;;;23.30;97.20;;;;;;1714931;28;20758;-71
2023/06/17 07:52:42;;;;;;;7.45;6.70;;;23.30;97.20;;;;;;1715106;28;20213;-71
2023/06/17 07:53:34;;;;;;;7.67;6.87;;;23.40;97.20;;;;;;1715108;28;20225;-71
2023/06/17 07:54:24;;;;;;;6.88;6.25;;;23.40;97.20;;;;;;1715294;28;20819;-71
2023/06/17 07:55:16;;;;;;;26.13;7.10;;;23.50;97.20;;;;;;1715112;28;20564;-71
2023/06/17 07:56:07;;;;;;;9.68;6.97;;;23.50;97.20;;;;;;1715144;28;20197;-71
2023/06/17 07:56:59;;;;;;;8.07;7.13;;;23.50;97.20;;;;;;1715166;28;20200;-71
2023/06/17 07:57:49;;;;;;;8.20;7.40;;;23.60;97.20;;;;;;1715076;28;20201;-71
2023/06/17 07:58:43;;;;;;;7.73;6.53;;;23.60;97.20;;;;;;1715126;28;20678;-71
2023/06/17 07:59:33;;;;;;;7.53;6.80;;;23.60;97.20;;;;;;1715133;28;20216;-71
2023/06/17 08:00:25;;;;;;;9.17;6.63;;;23.70;97.20;;;;;;1715132;28;20265;-71
2023/06/17 08:01:16;;;;;;;7.75;7.05;;;23.80;97.20;;;;;;1715051;28;20202;-71
2023/06/17 08:02:08;;;;;;;7.23;6.50;;;23.80;97.20;;;;;;1714965;28;20204;-71
2023/06/17 08:02:59;;;;;;;7.03;6.40;;;23.80;97.20;;;;;;1715110;28;20374;-71
2023/06/17 08:03:51;;;;;;;7.90;7.20;;;23.90;97.20;;;;;;1715138;28;20212;-71
2023/06/17 08:04:42;;;;;;;7.20;6.60;;;23.90;97.20;;;;;;1709959;28;20574;-72
2023/06/17 08:05:36;;;;;;;6.80;6.20;;;23.90;97.20;;;;;;1708477;28;20198;-71
2023/06/17 08:06:28;;;;;;;7.82;7.03;;;24.00;97.20;;;;;;1708539;28;20241;-71
2023/06/17 08:07:21;;;;;;;9.25;6.70;;;24.00;97.20;;;;;;1708332;28;20325;-71
2023/06/17 08:08:12;;;;;;;6.75;6.13;;;24.00;97.20;;;;;;1708446;28;20326;-71
2023/06/17 08:09:04;;;;;;;7.53;6.83;;;24.10;97.20;;;;;;1708527;28;20203;-72
2023/06/17 08:09:54;;;;;;;8.10;7.28;;;24.10;97.20;;;;;;1708401;28;20210;-72
2023/06/17 08:10:46;;;;;;;8.43;6.23;;;24.10;97.20;;;;;;1708290;28;20225;-71
2023/06/17 08:11:37;;;;;;;6.10;5.50;;;24.10;97.20;;;;;;1708408;28;20214;-71
2023/06/17 08:12:28;;;;;;;7.10;6.50;;;24.10;97.20;;;;;;1708180;28;20446;-71
2023/06/17 08:13:19;;;;;;;7.23;6.60;;;24.10;97.20;;;;;;1708422;28;20206;-71
2023/06/17 08:14:11;;;;;;;8.20;6.50;;;24.20;97.20;;;;;;1708350;28;20446;-71
2023/06/17 08:15:01;;;;;;;6.70;6.10;;;24.20;97.20;;;;;;1708402;28;20281;-71
2023/06/17 08:15:53;;;;;;;6.27;5.73;;;24.30;97.20;;;;;;1708430;28;20453;-71
2023/06/17 08:16:44;;;;;;;6.95;6.18;;;24.30;97.20;;;;;;1708484;28;20202;-71
2023/06/17 08:17:36;;;;;;;7.53;6.83;;;24.40;97.20;;;;;;1708311;28;20263;-71
2023/06/17 08:18:27;;;;;;;7.37;6.67;;;24.50;97.20;;;;;;1708455;28;20480;-71
2023/06/17 08:19:19;;;;;;;7.90;7.10;;;24.50;97.20;;;;;;1708372;28;20525;-71
2023/06/17 08:20:10;;;;;;;8.00;6.80;;;24.60;97.20;;;;;;1708344;28;20202;-72
2023/06/17 08:21:04;;;;;;;7.23;6.27;;;24.60;97.20;;;;;;1709462;28;20525;-71
2023/06/17 08:21:54;;;;;;;7.78;6.57;;;24.70;97.20;;;;;;1708040;28;20449;-71
2023/06/17 08:22:46;;;;;;;7.00;6.30;;;24.70;97.20;;;;;;1708315;28;20197;-71
2023/06/17 08:23:37;;;;;;;6.90;6.20;;;24.80;97.20;;;;;;1708235;28;20214;-71
2023/06/17 08:24:28;;;;;;;11.20;6.17;;;24.80;97.20;;;;;;1708424;28;20678;-71
2023/06/17 08:25:20;;;;;;;13.50;6.47;;;24.80;97.20;;;;;;1708362;28;20560;-71
2023/06/17 08:26:12;;;;;;;7.10;6.40;;;24.80;97.20;;;;;;1708390;28;20250;-71
2023/06/17 08:27:04;;;;;;;7.10;6.50;;;24.90;97.20;;;;;;1708381;28;20584;-71
2023/06/17 08:27:56;;;;;;;17.70;9.03;;;24.90;97.20;;;;;;1708244;28;20574;-71
2023/06/17 08:28:47;;;;;;;7.60;6.30;;;24.90;97.20;;;;;;1708378;28;20449;-71
2023/06/17 08:29:38;;;;;;;7.40;6.70;;;24.90;97.20;;;;;;1708309;28;20210;-71
2023/06/17 08:30:29;;;;;;;7.78;6.95;;;24.90;97.20;;;;;;1708109;28;20202;-71
2023/06/17 08:31:26;;;;;;;6.77;6.20;;;25.00;97.20;;;;;;1708269;28;20226;-71
2023/06/17 08:32:16;;;;;;;8.18;6.68;;;25.00;97.20;;;;;;1708073;28;20461;-72
2023/06/17 08:33:08;;;;;;;6.90;6.20;;;25.10;97.20;;;;;;1708424;28;20535;-71
2023/06/17 08:33:59;;;;;;;7.05;6.35;;;25.10;97.20;;;;;;1708291;28;20210;-71
2023/06/17 08:34:51;;;;;;;7.00;6.30;;;25.10;97.20;;;;;;1708293;28;20199;-71
2023/06/17 08:35:41;;;;;;;6.93;6.25;;;25.10;97.20;;;;;;1711792;28;20201;-72
2023/06/17 08:36:34;;;;;;;9.30;6.37;;;25.10;97.20;;;;;;1714572;28;20202;-71
2023/06/17 08:37:25;;;;;;;6.60;6.05;;;25.20;97.20;;;;;;1714843;28;20201;-71
2023/06/17 08:38:17;;;;;;;6.60;6.10;;;25.20;97.20;;;;;;1714887;28;20206;-71
2023/06/17 08:39:08;;;;;;;7.73;6.43;;;25.20;97.20;;;;;;1714915;28;20217;-72
2023/06/17 08:39:59;;;;;;;7.60;6.90;;;25.20;97.20;;;;;;1714920;28;20441;-71
2023/06/17 08:40:50;;;;;;;10.10;6.57;;;25.30;97.20;;;;;;1714755;28;20503;-71
2023/06/17 08:41:43;;;;;;;7.00;6.27;;;25.40;97.20;;;;;;1714824;28;20441;-72
2023/06/17 08:42:34;;;;;;;7.15;6.43;;;25.40;97.20;;;;;;1714815;28;20492;-72
2023/06/17 08:43:28;;;;;;;11.60;6.73;;;25.50;97.20;;;;;;1714889;28;20198;-71
2023/06/17 08:44:21;;;;;;;8.73;6.30;;;25.60;97.20;;;;;;1714857;28;20237;-72
2023/06/17 08:45:14;;;;;;;7.32;6.55;;;25.60;97.20;;;;;;1714871;28;20449;-71
2023/06/17 08:46:05;;;;;;;7.23;6.53;;;25.60;97.20;;;;;;1714953;28;20208;-71
2023/06/17 08:47:00;;;;;;;7.67;6.97;;;25.70;97.20;;;;;;1714806;28;20448;-72
2023/06/17 08:47:51;;;;;;;7.10;6.30;;;25.70;97.20;;;;;;1714762;28;20951;-71
2023/06/17 08:48:44;;;;;;;6.93;6.33;;;25.70;97.20;;;;;;1714869;28;20797;-71
2023/06/17 08:49:35;;;;;;;10.68;6.90;;;25.80;97.20;;;;;;1714052;28;20452;-71
2023/06/17 08:50:28;;;;;;;7.20;6.00;;;25.80;97.20;;;;;;1708214;28;20730;-71
2023/06/17 08:51:19;;;;;;;7.20;6.50;;;25.90;97.20;;;;;;1708100;28;20519;-72
2023/06/17 08:52:14;;;;;;;9.60;6.22;;;26.00;97.20;;;;;;1707962;28;20265;-71
2023/06/17 08:53:05;;;;;;;9.38;6.63;;;26.10;97.20;;;;;;1708345;28;20735;-71
2023/06/17 08:53:57;;;;;;;6.87;6.23;;;26.10;97.20;;;;;;1708103;28;20618;-71
2023/06/17 08:54:48;;;;;;;7.37;6.63;;;26.10;97.20;;;;;;1708209;28;20756;-71
2023/06/17 08:55:40;;;;;;;6.53;5.93;;;26.10;97.20;;;;;;1708191;28;20521;-71
2023/06/17 08:56:31;;;;;;;6.87;6.27;;;26.10;97.20;;;;;;1707221;28;20446;-71
2023/06/17 08:57:24;;;;;;;7.00;6.40;;;26.10;97.20;;;;;;1707707;28;20458;-71
2023/06/17 08:58:14;;;;;;;6.78;6.07;;;26.10;97.20;;;;;;1708154;28;20874;-71
2023/06/17 08:59:06;;;;;;;6.80;6.20;;;26.10;97.20;;;;;;1708215;28;20616;-71
2023/06/17 08:59:57;;;;;;;7.10;6.50;;;26.10;97.20;;;;;;1708105;28;20202;-71
2023/06/17 09:00:49;;;;;;;6.20;5.70;;;26.10;97.20;;;;;;1708093;28;20463;-71
2023/06/17 09:01:43;;;;;;;6.70;6.10;;;26.10;97.20;;;;;;1708168;28;20653;-71
2023/06/17 09:02:37;;;;;;;6.90;6.30;;;26.20;97.20;;;;;;1708097;28;20932;-71
2023/06/17 09:03:28;;;;;;;11.37;6.40;;;26.30;97.20;;;;;;1708082;28;20446;-71
2023/06/17 09:04:21;;;;;;;6.07;5.47;;;26.30;97.20;;;;;;1708000;28;20722;-71
2023/06/17 09:05:12;;;;;;;8.00;6.87;;;26.40;97.20;;;;;;1708140;28;20210;-71
2023/06/17 09:06:14;;;;;;;8.63;5.53;;;26.50;97.20;;;;;;1708098;28;20442;-71
2023/06/17 09:07:06;;;;;;;6.63;6.00;;;26.60;97.20;;;;;;1709243;28;20865;-71
2023/06/17 09:08:00;;;;;;;7.10;6.40;;;26.70;97.20;;;;;;1707963;28;20536;-71
2023/06/17 09:08:52;;;;;;;7.50;5.93;;;26.80;97.20;;;;;;1708073;28;20533;-72
2023/06/17 09:09:48;;;;;;;7.20;6.50;;;26.90;97.20;;;;;;1708066;28;20449;-71
2023/06/17 09:10:43;;;;;;;6.23;5.73;;;26.90;97.20;;;;;;1708052;28;20474;-71
2023/06/17 09:11:35;;;;;;;6.33;5.77;;;26.90;97.20;;;;;;1707961;28;20537;-71
2023/06/17 09:12:34;;;;;;;7.53;5.43;;;26.90;97.20;;;;;;1707814;28;20473;-71
2023/06/17 09:13:26;;;;;;;5.53;5.03;;;26.80;97.20;;;;;;1708076;28;20453;-71
2023/06/17 09:14:17;;;;;;;6.00;5.60;;;26.60;97.20;;;;;;1707978;28;20453;-71
2023/06/17 09:15:16;;;;;;;7.50;5.63;;;26.50;97.20;;;;;;1708105;28;20485;-71
2023/06/17 09:16:07;;;;;;;7.53;6.00;;;26.40;97.20;;;;;;1708149;28;20442;-71
2023/06/17 09:17:00;;;;;;;7.30;5.80;;;26.30;97.20;;;;;;1708129;28;20450;-71
2023/06/17 09:17:53;;;;;;;6.90;5.87;;;26.30;97.20;;;;;;1708051;28;20932;-72
2023/06/17 09:18:45;;;;;;;7.67;6.97;;;26.30;97.20;;;;;;1707979;28;20449;-71
2023/06/17 09:19:40;;;;;;;8.33;7.33;;;26.20;97.20;;;;;;1707979;28;20558;-71
2023/06/17 09:20:33;;;;;;;8.73;7.82;;;26.20;97.20;;;;;;1707933;28;22128;-71
2023/06/17 09:21:26;;;;;;;11.57;7.80;;;26.10;97.20;;;;;;1707999;28;20265;-71
2023/06/17 09:22:18;;;;;;;7.20;6.60;;;26.10;97.20;;;;;;1707708;28;20446;-71
2023/06/17 09:23:17;;;;;;;7.27;6.43;;;26.20;97.20;;;;;;1709758;28;20837;-71
2023/06/17 09:24:09;;;;;;;7.03;6.20;;;26.30;97.20;;;;;;1714542;28;20484;-72
2023/06/17 09:25:00;;;;;;;6.10;5.60;;;26.40;97.20;;;;;;1714314;28;20869;-71
2023/06/17 09:26:00;;;;;;;6.17;5.63;;;26.50;97.20;;;;;;1714586;28;20817;-71
2023/06/17 09:26:51;;;;;;;10.90;5.77;;;26.80;97.20;;;;;;1714580;28;20222;-71
2023/06/17 09:27:49;;;;;;;6.20;5.70;;;26.90;97.20;;;;;;1714595;28;20464;-71
2023/06/17 09:28:43;;;;;;;9.87;6.13;;;27.10;97.20;;;;;;1714588;28;20445;-72